sensor_id;sensor_type;location;lat;lon;timestamp;pressure;altitude;pressure_sealevel;temperature;humidity
49529;BME280;35423;37.320;-121.762;2022-11-20T00:02:10;100381.74;;;35.89;5.19
49529;BME280;35423;37.320;-121.762;2022-11-20T00:04:37;100377.28;;;35.14;5.38
49529;BME280;35423;37.320;-121.762;2022-11-20T00:07:04;100379.79;;;35.08;5.53
49529;BME280;35423;37.320;-121.762;2022-11-20T00:09:37;100379.46;;;33.99;5.61
49529;BME280;35423;37.320;-121.762;2022-11-20T00:12:03;100378.99;;;33.81;5.79
49529;BME280;35423;37.320;-121.762;2022-11-20T00:14:39;100379.15;;;33.52;5.99
49529;BME280;35423;37.320;-121.762;2022-11-20T00:17:05;100383.25;;;33.47;6.24
49529;BME280;35423;37.320;-121.762;2022-11-20T00:19:31;100383.21;;;32.17;6.34
49529;BME280;35423;37.320;-121.762;2022-11-20T00:22:01;100383.48;;;33.27;6.36
49529;BME280;35423;37.320;-121.762;2022-11-20T00:24:29;100385.92;;;32.01;6.56
49529;BME280;35423;37.320;-121.762;2022-11-20T00:26:55;100391.12;;;32.78;6.68
49529;BME280;35423;37.320;-121.762;2022-11-20T00:29:34;100392.48;;;32.51;6.94
49529;BME280;35423;37.320;-121.762;2022-11-20T00:32:01;100397.54;;;31.99;6.92
49529;BME280;35423;37.320;-121.762;2022-11-20T00:34:47;100399.15;;;31.09;7.04
49529;BME280;35423;37.320;-121.762;2022-11-20T00:37:17;100398.87;;;31.41;7.35
49529;BME280;35423;37.320;-121.762;2022-11-20T00:39:47;100402.01;;;31.33;7.58
49529;BME280;35423;37.320;-121.762;2022-11-20T00:42:13;100400.94;;;30.69;7.79
49529;BME280;35423;37.320;-121.762;2022-11-20T00:44:43;100400.81;;;30.29;7.99
49529;BME280;35423;37.320;-121.762;2022-11-20T00:47:14;100400.51;;;30.72;8.16
49529;BME280;35423;37.320;-121.762;2022-11-20T00:49:46;100402.85;;;30.04;8.30
49529;BME280;35423;37.320;-121.762;2022-11-20T00:52:10;100403.08;;;29.91;8.48
49529;BME280;35423;37.320;-121.762;2022-11-20T00:54:48;100409.16;;;29.41;8.61
49529;BME280;35423;37.320;-121.762;2022-11-20T00:57:17;100407.81;;;29.31;8.84
49529;BME280;35423;37.320;-121.762;2022-11-20T00:59:43;100409.65;;;28.82;9.02
49529;BME280;35423;37.320;-121.762;2022-11-20T01:02:09;100413.42;;;28.83;9.21
49529;BME280;35423;37.320;-121.762;2022-11-20T01:04:41;100415.35;;;27.89;9.37
49529;BME280;35423;37.320;-121.762;2022-11-20T01:07:06;100415.70;;;28.25;9.41
49529;BME280;35423;37.320;-121.762;2022-11-20T01:09:35;100417.14;;;27.15;9.46
49529;BME280;35423;37.320;-121.762;2022-11-20T01:12:17;100420.64;;;28.37;9.59
49529;BME280;35423;37.320;-121.762;2022-11-20T01:14:42;100427.64;;;27.34;9.63
49529;BME280;35423;37.320;-121.762;2022-11-20T01:17:13;100435.72;;;27.95;9.70
49529;BME280;35423;37.320;-121.762;2022-11-20T01:19:40;100441.62;;;27.13;9.94
49529;BME280;35423;37.320;-121.762;2022-11-20T01:22:18;100443.85;;;27.53;10.01
49529;BME280;35423;37.320;-121.762;2022-11-20T01:24:43;100445.75;;;26.90;10.13
49529;BME280;35423;37.320;-121.762;2022-11-20T01:27:11;100448.96;;;27.50;10.09
49529;BME280;35423;37.320;-121.762;2022-11-20T01:29:44;100452.59;;;27.04;10.22
49529;BME280;35423;37.320;-121.762;2022-11-20T01:32:14;100455.55;;;27.12;10.26
49529;BME280;35423;37.320;-121.762;2022-11-20T01:34:40;100459.14;;;26.69;10.43
49529;BME280;35423;37.320;-121.762;2022-11-20T01:37:08;100459.39;;;26.64;10.54
49529;BME280;35423;37.320;-121.762;2022-11-20T01:39:36;100464.60;;;25.68;10.69
49529;BME280;35423;37.320;-121.762;2022-11-20T01:42:01;100467.24;;;26.28;10.79
49529;BME280;35423;37.320;-121.762;2022-11-20T01:47:07;100474.68;;;26.26;10.98
49529;BME280;35423;37.320;-121.762;2022-11-20T01:49:36;100476.96;;;25.12;11.08
49529;BME280;35423;37.320;-121.762;2022-11-20T01:52:07;100478.19;;;25.91;11.14
49529;BME280;35423;37.320;-121.762;2022-11-20T01:54:46;100479.20;;;25.39;11.34
49529;BME280;35423;37.320;-121.762;2022-11-20T01:57:14;100479.18;;;25.91;11.41
49529;BME280;35423;37.320;-121.762;2022-11-20T01:59:40;100481.23;;;25.12;11.58
49529;BME280;35423;37.320;-121.762;2022-11-20T02:02:07;100483.47;;;25.02;11.62
49529;BME280;35423;37.320;-121.762;2022-11-20T02:04:34;100483.31;;;24.92;11.65
49529;BME280;35423;37.320;-121.762;2022-11-20T02:07:02;100488.47;;;25.10;11.73
49529;BME280;35423;37.320;-121.762;2022-11-20T02:09:26;100492.75;;;24.07;11.80
49529;BME280;35423;37.320;-121.762;2022-11-20T02:11:58;100493.24;;;25.14;11.89
49529;BME280;35423;37.320;-121.762;2022-11-20T02:14:25;100496.41;;;24.72;12.03
49529;BME280;35423;37.320;-121.762;2022-11-20T02:16:55;100498.86;;;24.23;12.18
49529;BME280;35423;37.320;-121.762;2022-11-20T02:19:24;100501.13;;;24.24;12.24
49529;BME280;35423;37.320;-121.762;2022-11-20T02:22:00;100504.96;;;24.60;12.47
49529;BME280;35423;37.320;-121.762;2022-11-20T02:24:19;100512.44;;;24.34;12.61
49529;BME280;35423;37.320;-121.762;2022-11-20T02:26:54;100519.30;;;24.52;12.74
49529;BME280;35423;37.320;-121.762;2022-11-20T02:29:23;100522.74;;;24.46;12.90
49529;BME280;35423;37.320;-121.762;2022-11-20T02:31:51;100524.85;;;24.26;12.99
49529;BME280;35423;37.320;-121.762;2022-11-20T02:34:18;100528.26;;;24.27;13.43
49529;BME280;35423;37.320;-121.762;2022-11-20T02:36:45;100532.09;;;23.73;13.59
49529;BME280;35423;37.320;-121.762;2022-11-20T02:39:16;100534.08;;;23.84;13.69
49529;BME280;35423;37.320;-121.762;2022-11-20T02:41:41;100534.80;;;23.51;13.56
49529;BME280;35423;37.320;-121.762;2022-11-20T02:44:09;100538.73;;;23.59;13.49
49529;BME280;35423;37.320;-121.762;2022-11-20T02:46:37;100542.21;;;23.22;13.50
49529;BME280;35423;37.320;-121.762;2022-11-20T02:49:23;100543.49;;;22.79;13.47
49529;BME280;35423;37.320;-121.762;2022-11-20T02:51:56;100539.58;;;23.45;13.57
49529;BME280;35423;37.320;-121.762;2022-11-20T02:54:22;100541.85;;;22.84;13.66
49529;BME280;35423;37.320;-121.762;2022-11-20T02:56:47;100543.36;;;23.47;13.63
49529;BME280;35423;37.320;-121.762;2022-11-20T02:59:13;100544.35;;;22.93;13.93
49529;BME280;35423;37.320;-121.762;2022-11-20T03:01:47;100548.68;;;22.89;13.97
49529;BME280;35423;37.320;-121.762;2022-11-20T03:04:19;100548.41;;;22.97;13.93
49529;BME280;35423;37.320;-121.762;2022-11-20T03:06:47;100553.52;;;22.96;13.87
49529;BME280;35423;37.320;-121.762;2022-11-20T03:09:20;100557.60;;;22.61;13.92
49529;BME280;35423;37.320;-121.762;2022-11-20T03:11:57;100561.00;;;22.81;14.03
49529;BME280;35423;37.320;-121.762;2022-11-20T03:14:27;100563.05;;;21.96;14.11
49529;BME280;35423;37.320;-121.762;2022-11-20T03:16:58;100560.25;;;22.80;14.16
49529;BME280;35423;37.320;-121.762;2022-11-20T03:19:24;100557.49;;;21.82;14.26
49529;BME280;35423;37.320;-121.762;2022-11-20T03:21:49;100565.00;;;22.61;14.34
49529;BME280;35423;37.320;-121.762;2022-11-20T03:24:18;100563.96;;;22.27;14.26
49529;BME280;35423;37.320;-121.762;2022-11-20T03:26:51;100560.21;;;22.02;14.14
49529;BME280;35423;37.320;-121.762;2022-11-20T03:29:17;100561.67;;;22.20;14.22
49529;BME280;35423;37.320;-121.762;2022-11-20T03:31:55;100563.49;;;22.22;14.23
49529;BME280;35423;37.320;-121.762;2022-11-20T03:34:22;100563.06;;;21.98;14.13
49529;BME280;35423;37.320;-121.762;2022-11-20T03:37:06;100564.24;;;21.65;14.19
49529;BME280;35423;37.320;-121.762;2022-11-20T03:39:33;100566.56;;;22.10;14.18
49529;BME280;35423;37.320;-121.762;2022-11-20T03:42:02;100572.49;;;22.45;14.45
49529;BME280;35423;37.320;-121.762;2022-11-20T03:44:40;100575.30;;;21.84;14.72
49529;BME280;35423;37.320;-121.762;2022-11-20T03:47:07;100577.22;;;21.77;14.88
49529;BME280;35423;37.320;-121.762;2022-11-20T03:49:37;100580.31;;;20.97;15.07
49529;BME280;35423;37.320;-121.762;2022-11-20T03:52:04;100584.42;;;21.60;15.13
49529;BME280;35423;37.320;-121.762;2022-11-20T03:54:33;100587.52;;;20.78;15.18
49529;BME280;35423;37.320;-121.762;2022-11-20T03:57:05;100587.14;;;21.61;15.24
49529;BME280;35423;37.320;-121.762;2022-11-20T03:59:34;100587.65;;;20.53;15.26
49529;BME280;35423;37.320;-121.762;2022-11-20T04:02:02;100589.86;;;21.47;15.32
49529;BME280;35423;37.320;-121.762;2022-11-20T04:04:35;100594.51;;;21.37;15.43
49529;BME280;35423;37.320;-121.762;2022-11-20T04:07:06;100598.79;;;21.09;15.64
49529;BME280;35423;37.320;-121.762;2022-11-20T04:09:34;100597.76;;;20.53;15.68
49529;BME280;35423;37.320;-121.762;2022-11-20T04:12:06;100599.86;;;20.93;15.77
49529;BME280;35423;37.320;-121.762;2022-11-20T04:14:46;100605.62;;;20.76;15.87
49529;BME280;35423;37.320;-121.762;2022-11-20T04:17:15;100610.78;;;20.70;15.92
49529;BME280;35423;37.320;-121.762;2022-11-20T04:19:49;100614.23;;;20.93;15.99
49529;BME280;35423;37.320;-121.762;2022-11-20T04:22:19;100615.18;;;20.15;16.09
49529;BME280;35423;37.320;-121.762;2022-11-20T04:24:46;100613.29;;;20.74;16.16
49529;BME280;35423;37.320;-121.762;2022-11-20T04:27:11;100616.98;;;20.67;16.25
49529;BME280;35423;37.320;-121.762;2022-11-20T04:29:47;100622.34;;;20.55;16.33
49529;BME280;35423;37.320;-121.762;2022-11-20T04:32:13;100624.07;;;20.32;16.49
49529;BME280;35423;37.320;-121.762;2022-11-20T04:34:48;100624.31;;;20.65;16.53
49529;BME280;35423;37.320;-121.762;2022-11-20T04:37:15;100626.56;;;20.53;16.57
49529;BME280;35423;37.320;-121.762;2022-11-20T04:39:47;100628.14;;;20.18;16.67
49529;BME280;35423;37.320;-121.762;2022-11-20T04:42:13;100626.18;;;20.37;16.69
49529;BME280;35423;37.320;-121.762;2022-11-20T04:44:38;100625.60;;;20.03;16.80
49529;BME280;35423;37.320;-121.762;2022-11-20T04:47:13;100626.06;;;20.25;16.80
49529;BME280;35423;37.320;-121.762;2022-11-20T04:49:39;100628.42;;;19.71;16.88
49529;BME280;35423;37.320;-121.762;2022-11-20T04:52:08;100631.25;;;20.37;16.90
49529;BME280;35423;37.320;-121.762;2022-11-20T04:54:39;100629.44;;;20.02;17.06
49529;BME280;35423;37.320;-121.762;2022-11-20T04:57:20;100630.74;;;19.50;17.08
49529;BME280;35423;37.320;-121.762;2022-11-20T04:59:51;100634.08;;;20.08;17.19
49529;BME280;35423;37.320;-121.762;2022-11-20T05:02:18;100635.75;;;20.01;17.19
49529;BME280;35423;37.320;-121.762;2022-11-20T05:04:43;100640.87;;;19.48;17.21
49529;BME280;35423;37.320;-121.762;2022-11-20T05:07:10;100642.42;;;19.95;17.24
49529;BME280;35423;37.320;-121.762;2022-11-20T05:09:37;100642.91;;;19.38;17.34
49529;BME280;35423;37.320;-121.762;2022-11-20T05:12:02;100640.94;;;19.75;17.43
49529;BME280;35423;37.320;-121.762;2022-11-20T05:14:33;100640.42;;;19.46;17.41
49529;BME280;35423;37.320;-121.762;2022-11-20T05:17:12;100643.82;;;19.94;17.36
49529;BME280;35423;37.320;-121.762;2022-11-20T05:19:40;100647.29;;;19.29;17.51
49529;BME280;35423;37.320;-121.762;2022-11-20T05:22:08;100648.96;;;19.76;17.49
49529;BME280;35423;37.320;-121.762;2022-11-20T05:24:34;100651.31;;;19.12;17.52
49529;BME280;35423;37.320;-121.762;2022-11-20T05:27:17;100653.17;;;19.50;17.50
49529;BME280;35423;37.320;-121.762;2022-11-20T05:29:51;100654.35;;;19.39;17.57
49529;BME280;35423;37.320;-121.762;2022-11-20T05:32:18;100656.56;;;18.88;17.56
49529;BME280;35423;37.320;-121.762;2022-11-20T05:34:44;100657.13;;;19.31;17.63
49529;BME280;35423;37.320;-121.762;2022-11-20T05:37:09;100661.91;;;19.11;17.61
49529;BME280;35423;37.320;-121.762;2022-11-20T05:39:36;100664.75;;;19.06;17.68
49529;BME280;35423;37.320;-121.762;2022-11-20T05:42:02;100668.77;;;19.12;17.78
49529;BME280;35423;37.320;-121.762;2022-11-20T05:44:30;100670.26;;;18.20;17.67
49529;BME280;35423;37.320;-121.762;2022-11-20T05:47:18;100668.38;;;19.06;17.56
49529;BME280;35423;37.320;-121.762;2022-11-20T05:49:48;100669.94;;;18.78;17.55
49529;BME280;35423;37.320;-121.762;2022-11-20T05:52:17;100670.76;;;19.20;17.58
49529;BME280;35423;37.320;-121.762;2022-11-20T05:54:41;100671.73;;;18.77;17.74
49529;BME280;35423;37.320;-121.762;2022-11-20T05:57:09;100673.18;;;18.67;17.94
49529;BME280;35423;37.320;-121.762;2022-11-20T05:59:51;100675.29;;;18.83;17.95
49529;BME280;35423;37.320;-121.762;2022-11-20T06:02:20;100677.83;;;17.95;18.13
49529;BME280;35423;37.320;-121.762;2022-11-20T06:04:51;100677.52;;;18.33;18.33
49529;BME280;35423;37.320;-121.762;2022-11-20T06:07:19;100678.39;;;18.21;18.39
49529;BME280;35423;37.320;-121.762;2022-11-20T06:09:56;100681.62;;;18.21;18.43
49529;BME280;35423;37.320;-121.762;2022-11-20T06:12:21;100683.48;;;18.12;18.55
49529;BME280;35423;37.320;-121.762;2022-11-20T06:14:49;100682.32;;;18.01;18.66
49529;BME280;35423;37.320;-121.762;2022-11-20T06:17:19;100679.69;;;18.01;18.65
49529;BME280;35423;37.320;-121.762;2022-11-20T06:19:47;100681.47;;;17.96;18.71
49529;BME280;35423;37.320;-121.762;2022-11-20T06:22:13;100680.03;;;18.40;18.79
49529;BME280;35423;37.320;-121.762;2022-11-20T06:24:40;100684.87;;;17.79;18.84
49529;BME280;35423;37.320;-121.762;2022-11-20T06:27:05;100686.49;;;18.26;18.87
49529;BME280;35423;37.320;-121.762;2022-11-20T06:29:34;100687.98;;;17.69;18.87
49529;BME280;35423;37.320;-121.762;2022-11-20T06:31:59;100690.98;;;18.12;18.84
49529;BME280;35423;37.320;-121.762;2022-11-20T06:34:28;100694.62;;;17.07;18.90
49529;BME280;35423;37.320;-121.762;2022-11-20T06:36:56;100694.94;;;17.54;18.93
49529;BME280;35423;37.320;-121.762;2022-11-20T06:39:21;100699.59;;;18.21;18.99
49529;BME280;35423;37.320;-121.762;2022-11-20T06:41:46;100700.87;;;18.12;19.05
49529;BME280;35423;37.320;-121.762;2022-11-20T06:44:12;100702.09;;;18.33;19.11
49529;BME280;35423;37.320;-121.762;2022-11-20T06:46:42;100703.37;;;17.68;19.18
49529;BME280;35423;37.320;-121.762;2022-11-20T06:49:08;100704.89;;;17.68;19.18
49529;BME280;35423;37.320;-121.762;2022-11-20T06:51:37;100704.84;;;17.48;19.10
49529;BME280;35423;37.320;-121.762;2022-11-20T06:54:01;100703.30;;;17.62;19.20
49529;BME280;35423;37.320;-121.762;2022-11-20T06:56:27;100701.35;;;16.87;19.16
49529;BME280;35423;37.320;-121.762;2022-11-20T06:58:53;100700.42;;;17.52;19.15
49529;BME280;35423;37.320;-121.762;2022-11-20T07:01:20;100697.78;;;17.30;19.11
49529;BME280;35423;37.320;-121.762;2022-11-20T07:03:50;100698.02;;;17.53;19.04
49529;BME280;35423;37.320;-121.762;2022-11-20T07:06:22;100693.94;;;17.73;19.04
49529;BME280;35423;37.320;-121.762;2022-11-20T07:08:53;100694.81;;;17.43;19.08
49529;BME280;35423;37.320;-121.762;2022-11-20T07:11:22;100692.97;;;16.88;19.11
49529;BME280;35423;37.320;-121.762;2022-11-20T07:13:50;100693.72;;;17.51;19.13
49529;BME280;35423;37.320;-121.762;2022-11-20T07:16:21;100692.18;;;16.75;19.14
49529;BME280;35423;37.320;-121.762;2022-11-20T07:18:48;100697.20;;;17.23;19.22
49529;BME280;35423;37.320;-121.762;2022-11-20T07:21:16;100697.53;;;17.72;19.17
49529;BME280;35423;37.320;-121.762;2022-11-20T07:23:44;100695.33;;;17.35;19.21
49529;BME280;35423;37.320;-121.762;2022-11-20T07:26:12;100693.53;;;17.55;19.13
49529;BME280;35423;37.320;-121.762;2022-11-20T07:28:46;100693.53;;;16.83;19.25
49529;BME280;35423;37.320;-121.762;2022-11-20T07:31:14;100696.09;;;16.99;19.37
49529;BME280;35423;37.320;-121.762;2022-11-20T07:33:39;100698.68;;;16.75;19.38
49529;BME280;35423;37.320;-121.762;2022-11-20T07:36:06;100700.24;;;17.03;19.46
49529;BME280;35423;37.320;-121.762;2022-11-20T07:38:33;100701.75;;;16.08;19.55
49529;BME280;35423;37.320;-121.762;2022-11-20T07:40:59;100701.99;;;17.01;19.48
49529;BME280;35423;37.320;-121.762;2022-11-20T07:43:26;100701.21;;;16.70;19.42
49529;BME280;35423;37.320;-121.762;2022-11-20T07:45:50;100700.22;;;17.09;19.51
49529;BME280;35423;37.320;-121.762;2022-11-20T07:48:20;100699.51;;;16.56;19.53
49529;BME280;35423;37.320;-121.762;2022-11-20T07:50:49;100696.60;;;16.66;19.67
49529;BME280;35423;37.320;-121.762;2022-11-20T07:53:19;100692.91;;;16.63;19.66
49529;BME280;35423;37.320;-121.762;2022-11-20T07:56:00;100691.68;;;16.78;19.70
49529;BME280;35423;37.320;-121.762;2022-11-20T07:58:23;100689.84;;;15.98;19.78
49529;BME280;35423;37.320;-121.762;2022-11-20T08:00:49;100687.14;;;15.16;19.78
49529;BME280;35423;37.320;-121.762;2022-11-20T08:03:21;100683.80;;;16.50;19.37
49529;BME280;35423;37.320;-121.762;2022-11-20T08:05:52;100684.14;;;16.71;19.45
49529;BME280;35423;37.320;-121.762;2022-11-20T08:08:17;100686.77;;;16.52;19.57
49529;BME280;35423;37.320;-121.762;2022-11-20T08:10:43;100684.73;;;16.39;19.62
49529;BME280;35423;37.320;-121.762;2022-11-20T08:13:09;100683.44;;;16.62;19.69
49529;BME280;35423;37.320;-121.762;2022-11-20T08:15:36;100683.01;;;16.28;19.74
49529;BME280;35423;37.320;-121.762;2022-11-20T08:18:03;100683.35;;;16.40;19.92
49529;BME280;35423;37.320;-121.762;2022-11-20T08:20:26;100687.45;;;15.63;20.09
49529;BME280;35423;37.320;-121.762;2022-11-20T08:22:52;100687.35;;;16.31;20.15
49529;BME280;35423;37.320;-121.762;2022-11-20T08:25:18;100690.59;;;16.26;20.10
49529;BME280;35423;37.320;-121.762;2022-11-20T08:27:45;100694.89;;;16.21;20.16
49529;BME280;35423;37.320;-121.762;2022-11-20T08:30:12;100701.92;;;16.07;20.32
49529;BME280;35423;37.320;-121.762;2022-11-20T08:32:38;100703.54;;;16.05;20.41
49529;BME280;35423;37.320;-121.762;2022-11-20T08:35:04;100699.82;;;15.92;20.55
49529;BME280;35423;37.320;-121.762;2022-11-20T08:37:34;100700.28;;;15.15;20.56
49529;BME280;35423;37.320;-121.762;2022-11-20T08:40:01;100697.05;;;15.91;20.47
49529;BME280;35423;37.320;-121.762;2022-11-20T08:42:28;100698.70;;;15.24;20.45
49529;BME280;35423;37.320;-121.762;2022-11-20T08:44:53;100693.17;;;15.98;20.43
49529;BME280;35423;37.320;-121.762;2022-11-20T08:47:20;100692.74;;;15.48;20.51
49529;BME280;35423;37.320;-121.762;2022-11-20T08:49:46;100689.65;;;15.68;20.55
49529;BME280;35423;37.320;-121.762;2022-11-20T08:52:13;100685.76;;;16.11;20.51
49529;BME280;35423;37.320;-121.762;2022-11-20T08:54:41;100684.28;;;15.61;20.53
49529;BME280;35423;37.320;-121.762;2022-11-20T08:57:15;100681.21;;;16.31;20.56
49529;BME280;35423;37.320;-121.762;2022-11-20T08:59:46;100677.08;;;15.83;20.57
49529;BME280;35423;37.320;-121.762;2022-11-20T09:02:16;100677.90;;;16.02;20.61
49529;BME280;35423;37.320;-121.762;2022-11-20T09:04:43;100675.47;;;15.49;20.67
49529;BME280;35423;37.320;-121.762;2022-11-20T09:07:07;100677.19;;;15.91;20.76
49529;BME280;35423;37.320;-121.762;2022-11-20T09:09:35;100677.68;;;15.66;21.00
49529;BME280;35423;37.320;-121.762;2022-11-20T09:12:07;100675.76;;;15.56;21.12
49529;BME280;35423;37.320;-121.762;2022-11-20T09:14:34;100670.52;;;15.16;21.19
49529;BME280;35423;37.320;-121.762;2022-11-20T09:17:01;100668.66;;;15.56;21.27
49529;BME280;35423;37.320;-121.762;2022-11-20T09:19:34;100668.00;;;14.77;21.35
49529;BME280;35423;37.320;-121.762;2022-11-20T09:22:15;100670.85;;;15.69;21.38
49529;BME280;35423;37.320;-121.762;2022-11-20T09:24:42;100676.79;;;14.92;21.46
49529;BME280;35423;37.320;-121.762;2022-11-20T09:27:10;100678.18;;;15.41;21.50
49529;BME280;35423;37.320;-121.762;2022-11-20T09:29:39;100677.01;;;14.91;21.54
49529;BME280;35423;37.320;-121.762;2022-11-20T09:32:08;100676.75;;;15.73;21.56
49529;BME280;35423;37.320;-121.762;2022-11-20T09:34:34;100676.28;;;14.74;21.58
49529;BME280;35423;37.320;-121.762;2022-11-20T09:37:01;100676.60;;;15.01;21.52
49529;BME280;35423;37.320;-121.762;2022-11-20T09:39:26;100675.39;;;14.79;21.55
49529;BME280;35423;37.320;-121.762;2022-11-20T09:42:06;100672.91;;;15.15;21.48
49529;BME280;35423;37.320;-121.762;2022-11-20T09:44:30;100670.39;;;14.97;21.33
49529;BME280;35423;37.320;-121.762;2022-11-20T09:46:55;100666.91;;;15.41;21.40
49529;BME280;35423;37.320;-121.762;2022-11-20T09:49:26;100663.09;;;14.78;21.46
49529;BME280;35423;37.320;-121.762;2022-11-20T09:51:50;100663.43;;;15.00;21.45
49529;BME280;35423;37.320;-121.762;2022-11-20T09:54:19;100665.64;;;15.31;21.28
49529;BME280;35423;37.320;-121.762;2022-11-20T09:56:45;100666.51;;;15.27;21.33
49529;BME280;35423;37.320;-121.762;2022-11-20T09:59:28;100668.48;;;15.26;21.35
49529;BME280;35423;37.320;-121.762;2022-11-20T10:01:46;100672.18;;;15.43;21.38
49529;BME280;35423;37.320;-121.762;2022-11-20T10:04:15;100673.43;;;15.12;21.42
49529;BME280;35423;37.320;-121.762;2022-11-20T10:06:55;100674.45;;;15.29;21.35
49529;BME280;35423;37.320;-121.762;2022-11-20T10:09:25;100676.98;;;14.26;21.46
49529;BME280;35423;37.320;-121.762;2022-11-20T10:11:54;100679.06;;;14.95;21.49
49529;BME280;35423;37.320;-121.762;2022-11-20T10:14:23;100678.29;;;14.98;21.41
49529;BME280;35423;37.320;-121.762;2022-11-20T10:16:51;100678.72;;;14.73;21.33
49529;BME280;35423;37.320;-121.762;2022-11-20T10:21:50;100680.67;;;14.59;21.47
49529;BME280;35423;37.320;-121.762;2022-11-20T10:26:40;100690.43;;;14.39;21.73
49529;BME280;35423;37.320;-121.762;2022-11-20T10:29:11;100687.58;;;14.65;21.75
49529;BME280;35423;37.320;-121.762;2022-11-20T10:31:34;100685.45;;;14.03;21.72
49529;BME280;35423;37.320;-121.762;2022-11-20T10:34:03;100688.11;;;14.71;21.71
49529;BME280;35423;37.320;-121.762;2022-11-20T10:36:27;100687.78;;;14.20;21.77
49529;BME280;35423;37.320;-121.762;2022-11-20T10:39:07;100686.60;;;14.82;21.89
49529;BME280;35423;37.320;-121.762;2022-11-20T10:41:32;100682.74;;;13.85;21.90
49529;BME280;35423;37.320;-121.762;2022-11-20T10:44:01;100679.30;;;14.75;21.90
49529;BME280;35423;37.320;-121.762;2022-11-20T10:46:21;100675.45;;;13.75;21.84
49529;BME280;35423;37.320;-121.762;2022-11-20T10:48:46;100670.06;;;15.13;21.64
49529;BME280;35423;37.320;-121.762;2022-11-20T10:51:20;100668.60;;;14.96;21.84
49529;BME280;35423;37.320;-121.762;2022-11-20T10:53:53;100667.46;;;14.36;21.93
49529;BME280;35423;37.320;-121.762;2022-11-20T10:56:16;100665.84;;;14.85;22.07
49529;BME280;35423;37.320;-121.762;2022-11-20T10:58:45;100664.33;;;14.31;22.03
49529;BME280;35423;37.320;-121.762;2022-11-20T11:01:28;100664.01;;;14.85;21.82
49529;BME280;35423;37.320;-121.762;2022-11-20T11:03:55;100665.55;;;14.49;21.88
49529;BME280;35423;37.320;-121.762;2022-11-20T11:06:28;100665.07;;;14.65;21.98
49529;BME280;35423;37.320;-121.762;2022-11-20T11:08:48;100667.53;;;14.37;21.98
49529;BME280;35423;37.320;-121.762;2022-11-20T11:11:21;100667.48;;;14.52;22.07
49529;BME280;35423;37.320;-121.762;2022-11-20T11:13:43;100671.87;;;14.22;22.10
49529;BME280;35423;37.320;-121.762;2022-11-20T11:18:49;100663.38;;;14.14;21.93
49529;BME280;35423;37.320;-121.762;2022-11-20T11:21:24;100661.69;;;14.28;22.00
49529;BME280;35423;37.320;-121.762;2022-11-20T11:23:46;100663.45;;;13.89;22.02
49529;BME280;35423;37.320;-121.762;2022-11-20T11:26:20;100663.08;;;14.34;22.23
49529;BME280;35423;37.320;-121.762;2022-11-20T11:28:42;100666.68;;;13.74;22.29
49529;BME280;35423;37.320;-121.762;2022-11-20T11:31:10;100666.98;;;14.16;22.53
49529;BME280;35423;37.320;-121.762;2022-11-20T11:33:39;100668.66;;;13.17;22.60
49529;BME280;35423;37.320;-121.762;2022-11-20T11:38:35;100668.63;;;13.51;22.96
49529;BME280;35423;37.320;-121.762;2022-11-20T11:41:00;100670.03;;;13.91;22.96
49529;BME280;35423;37.320;-121.762;2022-11-20T11:43:28;100671.52;;;13.37;23.03
49529;BME280;35423;37.320;-121.762;2022-11-20T11:45:56;100669.99;;;13.81;23.06
49529;BME280;35423;37.320;-121.762;2022-11-20T11:48:27;100670.70;;;13.60;22.88
49529;BME280;35423;37.320;-121.762;2022-11-20T11:50:58;100672.33;;;13.75;22.95
49529;BME280;35423;37.320;-121.762;2022-11-20T11:53:27;100674.27;;;14.00;23.01
49529;BME280;35423;37.320;-121.762;2022-11-20T11:55:50;100679.12;;;13.64;23.15
49529;BME280;35423;37.320;-121.762;2022-11-20T11:58:20;100678.23;;;13.88;23.20
49529;BME280;35423;37.320;-121.762;2022-11-20T12:00:56;100680.23;;;13.82;23.22
49529;BME280;35423;37.320;-121.762;2022-11-20T12:03:24;100684.54;;;13.44;23.32
49529;BME280;35423;37.320;-121.762;2022-11-20T12:05:57;100690.78;;;13.85;23.45
49529;BME280;35423;37.320;-121.762;2022-11-20T12:08:23;100691.05;;;13.63;23.60
49529;BME280;35423;37.320;-121.762;2022-11-20T12:10:47;100691.05;;;13.58;23.49
49529;BME280;35423;37.320;-121.762;2022-11-20T12:13:21;100692.98;;;13.73;23.46
49529;BME280;35423;37.320;-121.762;2022-11-20T12:15:39;100696.02;;;12.96;23.48
49529;BME280;35423;37.320;-121.762;2022-11-20T12:18:06;100699.10;;;13.47;23.48
49529;BME280;35423;37.320;-121.762;2022-11-20T12:20:38;100701.88;;;12.36;23.53
49529;BME280;35423;37.320;-121.762;2022-11-20T12:23:03;100702.24;;;13.41;23.51
49529;BME280;35423;37.320;-121.762;2022-11-20T12:25:29;100703.83;;;12.57;23.67
49529;BME280;35423;37.320;-121.762;2022-11-20T12:28:04;100706.33;;;13.48;23.84
49529;BME280;35423;37.320;-121.762;2022-11-20T12:30:21;100709.61;;;12.95;23.80
49529;BME280;35423;37.320;-121.762;2022-11-20T12:37:43;100710.96;;;13.10;23.76
49529;BME280;35423;37.320;-121.762;2022-11-20T12:40:23;100715.16;;;13.29;23.78
49529;BME280;35423;37.320;-121.762;2022-11-20T12:43:01;100716.48;;;13.14;23.92
49529;BME280;35423;37.320;-121.762;2022-11-20T12:45:30;100718.35;;;13.20;23.93
49529;BME280;35423;37.320;-121.762;2022-11-20T12:47:59;100718.99;;;13.23;23.90